DLH569 DNMM-FGSL
Flight info
| Callsign | DLH569 |
|---|---|
| Flight time | 1h 3m |
| Altitude | 35000 |
| Route | BOTBO1Q BOTBO UR984 POT DCT NAPAP DCT POT NAPAP1D |
| Aircraft | A359/H-SDE2E3GHIJ3J4J5LM1ORWXY/LB1D1 |
Departure
| Time | 2026-04-29 16:11 |
|---|---|
| Airport | Murtala Muhammed International Airport (DNMM) |
Arrival
| Time | 2026-04-29 17:15 |
|---|---|
| Airport | Malabo International Airport (FGSL) |
| Time | Latitude | Longitude | Altitude | Speed | Heading |
|---|---|---|---|---|---|
| 2026-04-29 15:53 | 6.58013 | 3.32202 | 101 ft | 0 kts | 114° |
| 2026-04-29 16:03 | 6.58021 | 3.32180 | 106 ft | 4 kts | 99° |
| 2026-04-29 16:04 | 6.58021 | 3.32154 | 100 ft | 4 kts | 72° |
| 2026-04-29 16:04 | 6.58008 | 3.32132 | 99 ft | 4 kts | 36° |
| 2026-04-29 16:04 | 6.57997 | 3.32125 | 99 ft | 0 kts | 21° |
| 2026-04-29 16:06 | 6.58042 | 3.32143 | 104 ft | 15 kts | 21° |
| 2026-04-29 16:07 | 6.58146 | 3.32183 | 103 ft | 17 kts | 21° |
| 2026-04-29 16:07 | 6.58225 | 3.32192 | 101 ft | 17 kts | 340° |
| 2026-04-29 16:07 | 6.58256 | 3.32045 | 102 ft | 20 kts | 252° |
| 2026-04-29 16:07 | 6.58221 | 3.31957 | 105 ft | 22 kts | 247° |
| 2026-04-29 16:08 | 6.58160 | 3.31818 | 103 ft | 17 kts | 246° |
| 2026-04-29 16:08 | 6.58108 | 3.31699 | 95 ft | 18 kts | 246° |
| 2026-04-29 16:08 | 6.58069 | 3.31595 | 90 ft | 19 kts | 264° |
| 2026-04-29 16:08 | 6.58164 | 3.31525 | 86 ft | 20 kts | 358° |
| 2026-04-29 16:09 | 6.58306 | 3.31523 | 88 ft | 21 kts | 359° |
| 2026-04-29 16:09 | 6.58441 | 3.31521 | 88 ft | 16 kts | 359° |
| 2026-04-29 16:09 | 6.58558 | 3.31520 | 87 ft | 18 kts | 0° |
| 2026-04-29 16:09 | 6.58667 | 3.31520 | 87 ft | 12 kts | 359° |
| 2026-04-29 16:10 | 6.58763 | 3.31511 | 86 ft | 15 kts | 341° |
| 2026-04-29 16:10 | 6.58808 | 3.31419 | 86 ft | 17 kts | 262° |
| 2026-04-29 16:10 | 6.58743 | 3.31337 | 89 ft | 9 kts | 208° |
| 2026-04-29 16:10 | 6.58679 | 3.31318 | 87 ft | 11 kts | 185° |
| 2026-04-29 16:11 | 6.58589 | 3.31316 | 85 ft | 23 kts | 180° |
| 2026-04-29 16:11 | 6.58147 | 3.31324 | 82 ft | 102 kts | 179° |
| 2026-04-29 16:11 | 6.57199 | 3.31332 | 84 ft | 167 kts | 180° |
| 2026-04-29 16:11 | 6.56004 | 3.31292 | 842 ft | 166 kts | 181° |
| 2026-04-29 16:12 | 6.54854 | 3.31262 | 1678 ft | 169 kts | 178° |
| 2026-04-29 16:12 | 6.53589 | 3.31309 | 2089 ft | 190 kts | 177° |
| 2026-04-29 16:12 | 6.52241 | 3.31365 | 2750 ft | 199 kts | 178° |
| 2026-04-29 16:12 | 6.50845 | 3.31568 | 3457 ft | 205 kts | 168° |
| 2026-04-29 16:13 | 6.49453 | 3.31907 | 4240 ft | 205 kts | 166° |
| 2026-04-29 16:13 | 6.48075 | 3.32259 | 5044 ft | 205 kts | 165° |
| 2026-04-29 16:13 | 6.46678 | 3.32613 | 5760 ft | 209 kts | 164° |
| 2026-04-29 16:13 | 6.45249 | 3.32972 | 6487 ft | 214 kts | 164° |
| 2026-04-29 16:14 | 6.43812 | 3.33330 | 7214 ft | 216 kts | 163° |
| 2026-04-29 16:14 | 6.42334 | 3.33697 | 7965 ft | 221 kts | 162° |
| 2026-04-29 16:14 | 6.40836 | 3.34118 | 8736 ft | 224 kts | 156° |
| 2026-04-29 16:14 | 6.39482 | 3.34862 | 9515 ft | 221 kts | 137° |
| 2026-04-29 16:15 | 6.38462 | 3.36001 | 10193 ft | 223 kts | 118° |
| 2026-04-29 16:15 | 6.37847 | 3.37501 | 10487 ft | 245 kts | 100° |
| 2026-04-29 16:15 | 6.37551 | 3.39276 | 10800 ft | 270 kts | 96° |
| 2026-04-29 16:15 | 6.37295 | 3.41205 | 11136 ft | 293 kts | 96° |
| 2026-04-29 16:16 | 6.37006 | 3.43308 | 11531 ft | 312 kts | 97° |
| 2026-04-29 16:16 | 6.36690 | 3.45507 | 12164 ft | 322 kts | 97° |
| 2026-04-29 16:16 | 6.36361 | 3.47751 | 12906 ft | 327 kts | 97° |
| 2026-04-29 16:16 | 6.36022 | 3.50035 | 13669 ft | 332 kts | 97° |
| 2026-04-29 16:17 | 6.35679 | 3.52344 | 14335 ft | 336 kts | 97° |
| 2026-04-29 16:17 | 6.35330 | 3.54684 | 14986 ft | 341 kts | 97° |
| 2026-04-29 16:17 | 6.34976 | 3.57057 | 15618 ft | 346 kts | 97° |
| 2026-04-29 16:17 | 6.34617 | 3.59463 | 16242 ft | 350 kts | 98° |
| 2026-04-29 16:18 | 6.34252 | 3.61905 | 16884 ft | 355 kts | 98° |
| 2026-04-29 16:18 | 6.33884 | 3.64366 | 17519 ft | 359 kts | 98° |
| 2026-04-29 16:18 | 6.33510 | 3.66865 | 18140 ft | 364 kts | 98° |
| 2026-04-29 16:18 | 6.33132 | 3.69393 | 18671 ft | 368 kts | 98° |
| 2026-04-29 16:19 | 6.32750 | 3.71947 | 19231 ft | 371 kts | 98° |
| 2026-04-29 16:19 | 6.32363 | 3.74527 | 19810 ft | 374 kts | 98° |
| 2026-04-29 16:19 | 6.31974 | 3.77125 | 20393 ft | 377 kts | 98° |
| 2026-04-29 16:19 | 6.31583 | 3.79739 | 20976 ft | 381 kts | 98° |
| 2026-04-29 16:20 | 6.31185 | 3.82387 | 21557 ft | 384 kts | 98° |
| 2026-04-29 16:20 | 6.30786 | 3.85051 | 22150 ft | 387 kts | 98° |
| 2026-04-29 16:20 | 6.30383 | 3.87736 | 22720 ft | 390 kts | 98° |
| 2026-04-29 16:20 | 6.29977 | 3.90447 | 23284 ft | 394 kts | 98° |
| 2026-04-29 16:21 | 6.29570 | 3.93155 | 23771 ft | 397 kts | 98° |
| 2026-04-29 16:21 | 6.29157 | 3.95906 | 24210 ft | 401 kts | 98° |
| 2026-04-29 16:21 | 6.28739 | 3.98691 | 24661 ft | 405 kts | 98° |
| 2026-04-29 16:21 | 6.28317 | 4.01504 | 25148 ft | 409 kts | 98° |
| 2026-04-29 16:22 | 6.27888 | 4.04355 | 25645 ft | 413 kts | 98° |
| 2026-04-29 16:22 | 6.27458 | 4.07220 | 26139 ft | 416 kts | 98° |
| 2026-04-29 16:22 | 6.27023 | 4.10112 | 26635 ft | 420 kts | 97° |
| 2026-04-29 16:22 | 6.26584 | 4.13031 | 27125 ft | 424 kts | 97° |
| 2026-04-29 16:23 | 6.26140 | 4.15983 | 27620 ft | 428 kts | 97° |
| 2026-04-29 16:23 | 6.25698 | 4.18916 | 28096 ft | 432 kts | 97° |
| 2026-04-29 16:23 | 6.25245 | 4.21922 | 28576 ft | 436 kts | 97° |
| 2026-04-29 16:23 | 6.24789 | 4.24947 | 29056 ft | 440 kts | 97° |
| 2026-04-29 16:24 | 6.24324 | 4.27999 | 29495 ft | 444 kts | 98° |
| 2026-04-29 16:24 | 6.23627 | 4.31040 | 29915 ft | 450 kts | 106° |
| 2026-04-29 16:24 | 6.22481 | 4.33983 | 30289 ft | 455 kts | 112° |
| 2026-04-29 16:24 | 6.21163 | 4.36895 | 30662 ft | 458 kts | 114° |
| 2026-04-29 16:25 | 6.19778 | 4.39793 | 31042 ft | 462 kts | 114° |
| 2026-04-29 16:25 | 6.18363 | 4.42695 | 31420 ft | 465 kts | 115° |
| 2026-04-29 16:25 | 6.16932 | 4.45629 | 31783 ft | 468 kts | 115° |
| 2026-04-29 16:25 | 6.15504 | 4.48575 | 32151 ft | 471 kts | 115° |
| 2026-04-29 16:26 | 6.14074 | 4.51546 | 32518 ft | 474 kts | 115° |
| 2026-04-29 16:26 | 6.12641 | 4.54540 | 32883 ft | 476 kts | 114° |
| 2026-04-29 16:26 | 6.11207 | 4.57548 | 33239 ft | 479 kts | 115° |
| 2026-04-29 16:26 | 6.09763 | 4.60580 | 33494 ft | 484 kts | 114° |
| 2026-04-29 16:27 | 6.08306 | 4.63643 | 33770 ft | 487 kts | 114° |
| 2026-04-29 16:27 | 6.06858 | 4.66685 | 34067 ft | 490 kts | 114° |
| 2026-04-29 16:27 | 6.05381 | 4.69786 | 34311 ft | 493 kts | 114° |
| 2026-04-29 16:27 | 6.03896 | 4.72902 | 34616 ft | 494 kts | 114° |
| 2026-04-29 16:28 | 6.02409 | 4.76021 | 34816 ft | 492 kts | 114° |
| 2026-04-29 16:28 | 6.00957 | 4.79064 | 34871 ft | 475 kts | 114° |
| 2026-04-29 16:28 | 5.99548 | 4.82014 | 34873 ft | 459 kts | 114° |
| 2026-04-29 16:28 | 5.98188 | 4.84862 | 34875 ft | 446 kts | 114° |
| 2026-04-29 16:29 | 5.96850 | 4.87666 | 34873 ft | 443 kts | 114° |
| 2026-04-29 16:29 | 5.94197 | 4.93231 | 34862 ft | 445 kts | 114° |
| 2026-04-29 16:30 | 5.91519 | 4.98847 | 34862 ft | 446 kts | 114° |
| 2026-04-29 16:30 | 5.88834 | 5.04476 | 34866 ft | 446 kts | 114° |
| 2026-04-29 16:31 | 5.86155 | 5.10067 | 34865 ft | 447 kts | 114° |
| 2026-04-29 16:31 | 5.83450 | 5.15702 | 34866 ft | 447 kts | 114° |
| 2026-04-29 16:32 | 5.80749 | 5.21328 | 34864 ft | 447 kts | 114° |
| 2026-04-29 16:32 | 5.78054 | 5.26947 | 34864 ft | 447 kts | 114° |
| 2026-04-29 16:33 | 5.74024 | 5.35346 | 34861 ft | 446 kts | 114° |
| 2026-04-29 16:33 | 5.71343 | 5.40931 | 34863 ft | 442 kts | 114° |
| 2026-04-29 16:34 | 5.68675 | 5.46489 | 34866 ft | 441 kts | 114° |
| 2026-04-29 16:34 | 5.66007 | 5.52044 | 34863 ft | 441 kts | 113° |
| 2026-04-29 16:35 | 5.63347 | 5.57582 | 34865 ft | 441 kts | 113° |
| 2026-04-29 16:35 | 5.60680 | 5.63131 | 34869 ft | 440 kts | 113° |
| 2026-04-29 16:36 | 5.58030 | 5.68645 | 34861 ft | 440 kts | 113° |
| 2026-04-29 16:36 | 5.55364 | 5.74189 | 34865 ft | 440 kts | 113° |
| 2026-04-29 16:37 | 5.52702 | 5.79724 | 34868 ft | 439 kts | 113° |
| 2026-04-29 16:37 | 5.50493 | 5.84315 | 34869 ft | 439 kts | 113° |
| 2026-04-29 16:38 | 5.47403 | 5.90737 | 34870 ft | 439 kts | 113° |
| 2026-04-29 16:38 | 5.44745 | 5.96259 | 34868 ft | 439 kts | 113° |
| 2026-04-29 16:39 | 5.42087 | 6.01780 | 34867 ft | 439 kts | 113° |
| 2026-04-29 16:39 | 5.39425 | 6.07307 | 34865 ft | 439 kts | 113° |
| 2026-04-29 16:40 | 5.36764 | 6.12831 | 34868 ft | 441 kts | 114° |
| 2026-04-29 16:40 | 5.34087 | 6.18388 | 34867 ft | 442 kts | 114° |
| 2026-04-29 16:41 | 5.31724 | 6.24040 | 34867 ft | 441 kts | 109° |
| 2026-04-29 16:41 | 5.29567 | 6.29815 | 34873 ft | 441 kts | 108° |
| 2026-04-29 16:42 | 5.27387 | 6.35549 | 34869 ft | 439 kts | 109° |
| 2026-04-29 16:42 | 5.25161 | 6.41257 | 34869 ft | 438 kts | 109° |
| 2026-04-29 16:43 | 5.22921 | 6.46945 | 34857 ft | 438 kts | 109° |
| 2026-04-29 16:43 | 5.20691 | 6.52601 | 34867 ft | 438 kts | 109° |
| 2026-04-29 16:44 | 5.18451 | 6.58287 | 34868 ft | 438 kts | 109° |
| 2026-04-29 16:44 | 5.16215 | 6.63983 | 34868 ft | 438 kts | 109° |
| 2026-04-29 16:45 | 5.13983 | 6.69671 | 34871 ft | 438 kts | 109° |
| 2026-04-29 16:45 | 5.11751 | 6.75356 | 34870 ft | 438 kts | 109° |
| 2026-04-29 16:46 | 5.09516 | 6.81047 | 34872 ft | 438 kts | 109° |
| 2026-04-29 16:46 | 5.07296 | 6.86698 | 34869 ft | 438 kts | 109° |
| 2026-04-29 16:47 | 5.05061 | 6.92388 | 34873 ft | 438 kts | 109° |
| 2026-04-29 16:47 | 5.02277 | 6.97831 | 34875 ft | 441 kts | 123° |
| 2026-04-29 16:48 | 4.98720 | 7.02856 | 34876 ft | 442 kts | 123° |
| 2026-04-29 16:48 | 4.95129 | 7.07865 | 34876 ft | 442 kts | 123° |
| 2026-04-29 16:49 | 4.91531 | 7.12873 | 34877 ft | 442 kts | 123° |
| 2026-04-29 16:49 | 4.87937 | 7.17873 | 34876 ft | 441 kts | 124° |
| 2026-04-29 16:50 | 4.84370 | 7.22835 | 34876 ft | 441 kts | 124° |
| 2026-04-29 16:50 | 4.80806 | 7.27789 | 34878 ft | 441 kts | 124° |
| 2026-04-29 16:51 | 4.77229 | 7.32761 | 34647 ft | 435 kts | 124° |
| 2026-04-29 16:51 | 4.75451 | 7.35232 | 33887 ft | 440 kts | 124° |
| 2026-04-29 16:51 | 4.73643 | 7.37747 | 32975 ft | 448 kts | 124° |
| 2026-04-29 16:52 | 4.71819 | 7.40281 | 32377 ft | 448 kts | 124° |
| 2026-04-29 16:52 | 4.69998 | 7.42810 | 31860 ft | 445 kts | 124° |
| 2026-04-29 16:52 | 4.68796 | 7.44480 | 31523 ft | 443 kts | 124° |
| 2026-04-29 16:52 | 4.66419 | 7.47781 | 30923 ft | 441 kts | 124° |
| 2026-04-29 16:53 | 4.64627 | 7.50271 | 30376 ft | 440 kts | 124° |
| 2026-04-29 16:53 | 4.62835 | 7.52758 | 29843 ft | 438 kts | 124° |
| 2026-04-29 16:53 | 4.61632 | 7.54430 | 29466 ft | 436 kts | 124° |
| 2026-04-29 16:53 | 4.59887 | 7.56852 | 28964 ft | 432 kts | 124° |
| 2026-04-29 16:54 | 4.58136 | 7.59283 | 28467 ft | 429 kts | 124° |
| 2026-04-29 16:54 | 4.56395 | 7.61700 | 27978 ft | 425 kts | 124° |
| 2026-04-29 16:54 | 4.54674 | 7.64088 | 27470 ft | 421 kts | 124° |
| 2026-04-29 16:54 | 4.52968 | 7.66457 | 26984 ft | 417 kts | 124° |
| 2026-04-29 16:55 | 4.51276 | 7.68806 | 26484 ft | 414 kts | 124° |
| 2026-04-29 16:55 | 4.49594 | 7.71139 | 25990 ft | 411 kts | 124° |
| 2026-04-29 16:55 | 4.47926 | 7.73454 | 25489 ft | 408 kts | 124° |
| 2026-04-29 16:55 | 4.46271 | 7.75750 | 25010 ft | 405 kts | 124° |
| 2026-04-29 16:56 | 4.44623 | 7.78036 | 24492 ft | 402 kts | 123° |
| 2026-04-29 16:56 | 4.42995 | 7.80296 | 24007 ft | 399 kts | 123° |
| 2026-04-29 16:56 | 4.41373 | 7.82546 | 23503 ft | 397 kts | 123° |
| 2026-04-29 16:56 | 4.39762 | 7.84781 | 22937 ft | 394 kts | 123° |
| 2026-04-29 16:57 | 4.38167 | 7.86992 | 22431 ft | 389 kts | 123° |
| 2026-04-29 16:57 | 4.36589 | 7.89181 | 21938 ft | 384 kts | 123° |
| 2026-04-29 16:57 | 4.35053 | 7.91310 | 21453 ft | 380 kts | 123° |
| 2026-04-29 16:57 | 4.33511 | 7.93449 | 20964 ft | 376 kts | 123° |
| 2026-04-29 16:58 | 4.31991 | 7.95557 | 20470 ft | 372 kts | 123° |
| 2026-04-29 16:58 | 4.30478 | 7.97654 | 19996 ft | 369 kts | 123° |
| 2026-04-29 16:58 | 4.28983 | 7.99728 | 19508 ft | 365 kts | 123° |
| 2026-04-29 16:58 | 4.27497 | 8.01788 | 19042 ft | 362 kts | 123° |
| 2026-04-29 16:59 | 4.26026 | 8.03827 | 18567 ft | 359 kts | 123° |
| 2026-04-29 16:59 | 4.24741 | 8.05912 | 18389 ft | 345 kts | 114° |
| 2026-04-29 16:59 | 4.23717 | 8.08084 | 17759 ft | 347 kts | 111° |
| 2026-04-29 16:59 | 4.22761 | 8.10301 | 17175 ft | 345 kts | 111° |
| 2026-04-29 17:00 | 4.21834 | 8.12505 | 16724 ft | 341 kts | 110° |
| 2026-04-29 17:00 | 4.20926 | 8.14683 | 16257 ft | 336 kts | 110° |
| 2026-04-29 17:00 | 4.20026 | 8.16858 | 16011 ft | 340 kts | 110° |
| 2026-04-29 17:00 | 4.19126 | 8.19041 | 15758 ft | 345 kts | 110° |
| 2026-04-29 17:01 | 4.18209 | 8.21262 | 15525 ft | 344 kts | 110° |
| 2026-04-29 17:01 | 4.17298 | 8.23473 | 15288 ft | 342 kts | 110° |
| 2026-04-29 17:01 | 4.16391 | 8.25672 | 15063 ft | 341 kts | 110° |
| 2026-04-29 17:01 | 4.15490 | 8.27860 | 14553 ft | 340 kts | 111° |
| 2026-04-29 17:02 | 4.14586 | 8.30055 | 13608 ft | 338 kts | 111° |
| 2026-04-29 17:02 | 4.13693 | 8.32224 | 12349 ft | 337 kts | 111° |
| 2026-04-29 17:02 | 4.12798 | 8.34397 | 11150 ft | 336 kts | 111° |
| 2026-04-29 17:02 | 4.11922 | 8.36522 | 10478 ft | 320 kts | 111° |
| 2026-04-29 17:03 | 4.11111 | 8.38483 | 10334 ft | 289 kts | 111° |
| 2026-04-29 17:03 | 4.10378 | 8.40256 | 10236 ft | 266 kts | 110° |
| 2026-04-29 17:03 | 4.09691 | 8.41925 | 10137 ft | 254 kts | 110° |
| 2026-04-29 17:03 | 4.09032 | 8.43529 | 9907 ft | 251 kts | 110° |
| 2026-04-29 17:04 | 4.08360 | 8.45165 | 9617 ft | 261 kts | 110° |
| 2026-04-29 17:04 | 4.07654 | 8.46887 | 9488 ft | 270 kts | 110° |
| 2026-04-29 17:04 | 4.06950 | 8.48594 | 9073 ft | 259 kts | 111° |
| 2026-04-29 17:04 | 4.06268 | 8.50247 | 8693 ft | 257 kts | 111° |
| 2026-04-29 17:05 | 4.05585 | 8.51905 | 8373 ft | 258 kts | 111° |
| 2026-04-29 17:05 | 4.04903 | 8.53561 | 8080 ft | 257 kts | 111° |
| 2026-04-29 17:05 | 4.04218 | 8.55221 | 7780 ft | 257 kts | 111° |
| 2026-04-29 17:05 | 4.03542 | 8.56862 | 7519 ft | 258 kts | 111° |
| 2026-04-29 17:06 | 4.02859 | 8.58519 | 7193 ft | 255 kts | 111° |
| 2026-04-29 17:06 | 4.02184 | 8.60155 | 6899 ft | 254 kts | 111° |
| 2026-04-29 17:06 | 4.01510 | 8.61792 | 6609 ft | 254 kts | 111° |
| 2026-04-29 17:06 | 4.00835 | 8.63427 | 6316 ft | 254 kts | 112° |
| 2026-04-29 17:07 | 4.00176 | 8.65027 | 6023 ft | 254 kts | 112° |
| 2026-04-29 17:07 | 3.99502 | 8.66660 | 5721 ft | 254 kts | 112° |
| 2026-04-29 17:07 | 3.98830 | 8.68291 | 5433 ft | 253 kts | 112° |
| 2026-04-29 17:07 | 3.98159 | 8.69916 | 5186 ft | 253 kts | 112° |
| 2026-04-29 17:08 | 3.97487 | 8.71547 | 4951 ft | 253 kts | 112° |
| 2026-04-29 17:08 | 3.96814 | 8.73179 | 4679 ft | 252 kts | 112° |
| 2026-04-29 17:08 | 3.96150 | 8.74788 | 4417 ft | 247 kts | 112° |
| 2026-04-29 17:08 | 3.95515 | 8.76329 | 4197 ft | 238 kts | 112° |
| 2026-04-29 17:09 | 3.94885 | 8.77856 | 3854 ft | 237 kts | 113° |
| 2026-04-29 17:09 | 3.94262 | 8.79366 | 3653 ft | 230 kts | 113° |
| 2026-04-29 17:09 | 3.93666 | 8.80811 | 3506 ft | 219 kts | 113° |
| 2026-04-29 17:09 | 3.93097 | 8.82188 | 3409 ft | 209 kts | 113° |
| 2026-04-29 17:10 | 3.92510 | 8.83489 | 3158 ft | 201 kts | 122° |
| 2026-04-29 17:10 | 3.91402 | 8.84222 | 3000 ft | 191 kts | 169° |
| 2026-04-29 17:10 | 3.90179 | 8.83951 | 2927 ft | 176 kts | 208° |
| 2026-04-29 17:10 | 3.89263 | 8.83195 | 2843 ft | 169 kts | 223° |
| 2026-04-29 17:11 | 3.88401 | 8.82395 | 2773 ft | 168 kts | 219° |
| 2026-04-29 17:11 | 3.87530 | 8.81612 | 2687 ft | 168 kts | 220° |
| 2026-04-29 17:11 | 3.86655 | 8.80837 | 2610 ft | 168 kts | 219° |
| 2026-04-29 17:11 | 3.85776 | 8.80068 | 2431 ft | 167 kts | 220° |
| 2026-04-29 17:12 | 3.84924 | 8.79310 | 2226 ft | 161 kts | 221° |
| 2026-04-29 17:12 | 3.84105 | 8.78571 | 2007 ft | 156 kts | 221° |
| 2026-04-29 17:12 | 3.83315 | 8.77861 | 1813 ft | 153 kts | 222° |
| 2026-04-29 17:12 | 3.82783 | 8.77382 | 1677 ft | 153 kts | 222° |
| 2026-04-29 17:13 | 3.81729 | 8.76434 | 1410 ft | 154 kts | 223° |
| 2026-04-29 17:13 | 3.80929 | 8.75715 | 1224 ft | 154 kts | 223° |
| 2026-04-29 17:13 | 3.80150 | 8.75015 | 1025 ft | 146 kts | 223° |
| 2026-04-29 17:13 | 3.79412 | 8.74353 | 833 ft | 138 kts | 224° |
| 2026-04-29 17:14 | 3.78716 | 8.73728 | 674 ft | 132 kts | 223° |
| 2026-04-29 17:14 | 3.78032 | 8.73112 | 509 ft | 132 kts | 223° |
| 2026-04-29 17:14 | 3.77344 | 8.72493 | 332 ft | 133 kts | 223° |
| 2026-04-29 17:14 | 3.76651 | 8.71868 | 142 ft | 134 kts | 223° |
| 2026-04-29 17:15 | 3.75979 | 8.71270 | 62 ft | 118 kts | 221° |
| 2026-04-29 17:15 | 3.75566 | 8.70901 | 67 ft | 54 kts | 221° |
| 2026-04-29 17:15 | 3.75300 | 8.70666 | 85 ft | 49 kts | 221° |
| 2026-04-29 17:15 | 3.75121 | 8.70507 | 85 ft | 28 kts | 221° |
| 2026-04-29 17:16 | 3.74981 | 8.70395 | 85 ft | 18 kts | 212° |
| 2026-04-29 17:16 | 3.74879 | 8.70354 | 82 ft | 16 kts | 196° |
| 2026-04-29 17:16 | 3.74769 | 8.70327 | 69 ft | 10 kts | 192° |
| 2026-04-29 17:16 | 3.74692 | 8.70338 | 66 ft | 10 kts | 129° |
| 2026-04-29 17:17 | 3.74721 | 8.70389 | 71 ft | 10 kts | 41° |
| 2026-04-29 17:17 | 3.74784 | 8.70444 | 66 ft | 14 kts | 41° |
| 2026-04-29 17:17 | 3.74866 | 8.70516 | 67 ft | 17 kts | 41° |
| 2026-04-29 17:17 | 3.74965 | 8.70604 | 65 ft | 20 kts | 42° |
| 2026-04-29 17:18 | 3.75078 | 8.70705 | 67 ft | 23 kts | 42° |
| 2026-04-29 17:18 | 3.75177 | 8.70794 | 65 ft | 13 kts | 42° |
| 2026-04-29 17:18 | 3.75240 | 8.70854 | 67 ft | 4 kts | 64° |
| 2026-04-29 17:18 | 3.75236 | 8.70895 | 68 ft | 8 kts | 108° |
| 2026-04-29 17:19 | 3.75215 | 8.70956 | 67 ft | 11 kts | 114° |
| 2026-04-29 17:19 | 3.75178 | 8.71007 | 67 ft | 0 kts | 130° |